LEGE Airport Information

Runway Information
Runway 02 Length 7874 ft width 148 ft
Elevation 403 ft Threshold 0 ft Heading 16
Runway 20 Length 7874 ft Width 148 ft
Elevation 468 ft Threshold 0 ft Heading 196
Airport Frequencies
Type APP Name APP Frequency 120.9 MHZ
Type GND Name GND Frequency 121.7 MHZ
Type TWR Name TWR Frequency 118.5 MHZ
Airport Navaids
Type VOR-DME Name Gerona Frequency 114100 KHZ
Type NDB Name Gerona Frequency 412 KHZ
Airport Weather Information & NOTAM
ADDS - METARS form results

(2149 UTC 12 December 2018)
Data provider http://aviationweather.gov/metar/data/
 
METAR text: LEGE 122130Z VRB02KT 9999 BKN021 10/10 Q1015
Conditions at: LEGE (GERONA/COSTA BRA, ES) observed 2130 UTC 12 December 2018
Temperature: 10.0°C (50°F)
Dewpoint: 10.0°C (50°F) [RH = 100%]
Pressure (altimeter): 29.97 inches Hg (1015.0 mb)
Winds: variable direction winds at 2 MPH (2 knots; 1.0 m/s)
Visibility: 6 or more miles (10+ km)
Ceiling: 2100 feet AGL
Clouds: broken clouds at 2100 feet AGL
Weather: no significant weather observed at this time

METAR text: LEGE 122100Z 00000KT 9999 BKN021 10/10 Q1015
Conditions at: LEGE (GERONA/COSTA BRA, ES) observed 2100 UTC 12 December 2018
Temperature: 10.0°C (50°F)
Dewpoint: 10.0°C (50°F) [RH = 100%]
Pressure (altimeter): 29.97 inches Hg (1015.0 mb)
Winds: calm
Visibility: 6 or more miles (10+ km)
Ceiling: 2100 feet AGL
Clouds: broken clouds at 2100 feet AGL
Weather: no significant weather observed at this time

Forecast for: LEGE (GERONA/COSTA BRA, ES)
Text: TAF LEGE 121700Z 1218/1318 VRB04KT 9999 BKN030 TX13/1313Z TN06/1306Z
Forecast period: 1800 UTC 12 December 2018 to 1800 UTC 13 December 2018
Forecast type: FROM: standard forecast or significant change
Winds: variable direction winds at 5 MPH (4 knots; 2.1 m/s)
Visibility: 6 or more miles 10+ km)
Ceiling: 3000 feet AGL
Clouds: broken clouds at 3000 feet AGL
Weather: no significant weather forecast for this period
Text: PROB40
Forecast period: 1900 UTC 12 December 2018 to 0900 UTC 13 December 2018
Forecast type: TEMPORARY: The following changes expected for less than half the time period
Visibility: 1.24 miles (2.00 km)
Ceiling: 500 feet AGL
Clouds: broken clouds at 500 feet AGL
Weather: BR RA  (mist, moderate rain)
Text: TEMPO 1219/1309 2000 BR RA BKN005
Forecast period: 1200 to 1800 UTC 13 December 2018
Forecast type: TEMPORARY: The following changes expected for less than half the time period
Visibility: 2.49 miles (4.01 km)
Ceiling: unknown
Clouds: missing
Weather: RA  (moderate rain)